sensor_id;sensor_type;location;lat;lon;timestamp;pressure;altitude;pressure_sealevel;temperature;humidity
9059;BME280;4564;42.034;25.834;2023-02-14T00:00:16;101739.09;;;-1.96;84.91
9059;BME280;4564;42.034;25.834;2023-02-14T00:02:43;101749.28;;;-1.68;84.48
9059;BME280;4564;42.034;25.834;2023-02-14T00:05:11;101740.56;;;-1.72;83.55
9059;BME280;4564;42.034;25.834;2023-02-14T00:07:37;101750.28;;;-1.71;83.74
9059;BME280;4564;42.034;25.834;2023-02-14T00:10:04;101753.59;;;-1.66;83.95
9059;BME280;4564;42.034;25.834;2023-02-14T00:12:31;101752.38;;;-1.59;84.49
9059;BME280;4564;42.034;25.834;2023-02-14T00:14:58;101761.63;;;-1.49;84.13
9059;BME280;4564;42.034;25.834;2023-02-14T00:17:42;101762.09;;;-1.58;83.91
9059;BME280;4564;42.034;25.834;2023-02-14T00:20:08;101754.53;;;-1.67;84.30
9059;BME280;4564;42.034;25.834;2023-02-14T00:22:37;101756.75;;;-1.77;84.90
9059;BME280;4564;42.034;25.834;2023-02-14T00:25:03;101757.16;;;-1.84;85.16
9059;BME280;4564;42.034;25.834;2023-02-14T00:27:30;101764.47;;;-1.89;85.71
9059;BME280;4564;42.034;25.834;2023-02-14T00:29:56;101757.44;;;-1.90;86.05
9059;BME280;4564;42.034;25.834;2023-02-14T00:32:26;101752.81;;;-1.87;84.90
9059;BME280;4564;42.034;25.834;2023-02-14T00:34:53;101757.50;;;-1.73;85.70
9059;BME280;4564;42.034;25.834;2023-02-14T00:37:19;101759.66;;;-1.62;85.19
9059;BME280;4564;42.034;25.834;2023-02-14T00:39:47;101759.66;;;-1.62;84.50
9059;BME280;4564;42.034;25.834;2023-02-14T00:42:14;101753.75;;;-1.69;84.67
9059;BME280;4564;42.034;25.834;2023-02-14T00:44:40;101754.97;;;-1.76;84.18
9059;BME280;4564;42.034;25.834;2023-02-14T00:47:07;101753.03;;;-1.91;84.15
9059;BME280;4564;42.034;25.834;2023-02-14T00:49:34;101765.03;;;-2.01;83.36
9059;BME280;4564;42.034;25.834;2023-02-14T00:52:00;101762.94;;;-2.14;84.06
9059;BME280;4564;42.034;25.834;2023-02-14T00:54:27;101754.28;;;-2.37;85.27
9059;BME280;4564;42.034;25.834;2023-02-14T00:56:55;101753.44;;;-2.38;85.67
9059;BME280;4564;42.034;25.834;2023-02-14T00:59:21;101755.03;;;-2.34;85.43
9059;BME280;4564;42.034;25.834;2023-02-14T01:01:48;101748.50;;;-2.47;85.07
9059;BME280;4564;42.034;25.834;2023-02-14T01:04:15;101748.72;;;-2.51;85.95
9059;BME280;4564;42.034;25.834;2023-02-14T01:06:41;101747.97;;;-2.35;85.80
9059;BME280;4564;42.034;25.834;2023-02-14T01:09:08;101740.81;;;-2.33;85.03
9059;BME280;4564;42.034;25.834;2023-02-14T01:11:34;101743.19;;;-2.47;84.47
9059;BME280;4564;42.034;25.834;2023-02-14T01:14:02;101744.69;;;-2.60;85.15
9059;BME280;4564;42.034;25.834;2023-02-14T01:16:29;101737.09;;;-2.69;85.45
9059;BME280;4564;42.034;25.834;2023-02-14T01:18:57;101725.50;;;-2.67;85.25
9059;BME280;4564;42.034;25.834;2023-02-14T01:21:24;101730.75;;;-2.65;84.93
9059;BME280;4564;42.034;25.834;2023-02-14T01:23:52;101722.63;;;-2.62;85.23
9059;BME280;4564;42.034;25.834;2023-02-14T01:26:19;101727.34;;;-2.48;84.94
9059;BME280;4564;42.034;25.834;2023-02-14T01:28:46;101730.13;;;-2.51;84.24
9059;BME280;4564;42.034;25.834;2023-02-14T01:31:15;101734.84;;;-2.58;84.89
9059;BME280;4564;42.034;25.834;2023-02-14T01:33:44;101728.22;;;-2.68;85.07
9059;BME280;4564;42.034;25.834;2023-02-14T01:36:15;101736.06;;;-2.85;85.09
9059;BME280;4564;42.034;25.834;2023-02-14T01:38:42;101732.03;;;-2.94;85.55
9059;BME280;4564;42.034;25.834;2023-02-14T01:41:09;101729.81;;;-3.05;86.49
9059;BME280;4564;42.034;25.834;2023-02-14T01:43:48;101724.41;;;-3.23;87.01
9059;BME280;4564;42.034;25.834;2023-02-14T01:46:16;101719.56;;;-3.34;87.57
9059;BME280;4564;42.034;25.834;2023-02-14T01:48:42;101723.00;;;-3.52;87.97
9059;BME280;4564;42.034;25.834;2023-02-14T01:51:09;101727.53;;;-3.77;88.54
9059;BME280;4564;42.034;25.834;2023-02-14T01:53:36;101722.75;;;-3.90;88.25
9059;BME280;4564;42.034;25.834;2023-02-14T01:56:03;101718.16;;;-4.08;88.81
9059;BME280;4564;42.034;25.834;2023-02-14T01:58:33;101724.72;;;-3.95;90.77
9059;BME280;4564;42.034;25.834;2023-02-14T02:01:02;101722.38;;;-3.81;90.65
9059;BME280;4564;42.034;25.834;2023-02-14T02:03:31;101714.59;;;-3.63;89.98
9059;BME280;4564;42.034;25.834;2023-02-14T02:06:01;101712.13;;;-3.46;89.84
9059;BME280;4564;42.034;25.834;2023-02-14T02:08:30;101703.72;;;-3.35;89.03
9059;BME280;4564;42.034;25.834;2023-02-14T02:10:58;101702.47;;;-3.27;88.86
9059;BME280;4564;42.034;25.834;2023-02-14T02:13:24;101710.69;;;-3.13;87.74
9059;BME280;4564;42.034;25.834;2023-02-14T02:15:55;101705.13;;;-3.07;87.60
9059;BME280;4564;42.034;25.834;2023-02-14T02:18:25;101697.63;;;-2.77;87.77
9059;BME280;4564;42.034;25.834;2023-02-14T02:23:56;101705.91;;;-2.84;86.79
9059;BME280;4564;42.034;25.834;2023-02-14T02:26:37;101692.84;;;-2.89;86.84
9059;BME280;4564;42.034;25.834;2023-02-14T02:29:26;101680.44;;;-2.88;86.30
9059;BME280;4564;42.034;25.834;2023-02-14T02:32:03;101685.69;;;-2.87;86.50
9059;BME280;4564;42.034;25.834;2023-02-14T02:37:33;101682.94;;;-2.65;85.88
9059;BME280;4564;42.034;25.834;2023-02-14T02:40:10;101689.59;;;-2.75;86.05
9059;BME280;4564;42.034;25.834;2023-02-14T02:42:41;101692.09;;;-2.72;86.48
9059;BME280;4564;42.034;25.834;2023-02-14T02:45:11;101678.38;;;-2.82;86.39
9059;BME280;4564;42.034;25.834;2023-02-14T02:47:41;101676.06;;;-2.89;86.92
9059;BME280;4564;42.034;25.834;2023-02-14T02:50:13;101668.50;;;-2.99;86.67
9059;BME280;4564;42.034;25.834;2023-02-14T02:53:03;101661.88;;;-3.09;85.98
9059;BME280;4564;42.034;25.834;2023-02-14T02:55:35;101656.78;;;-3.13;86.71
9059;BME280;4564;42.034;25.834;2023-02-14T02:58:18;101655.56;;;-3.06;86.98
9059;BME280;4564;42.034;25.834;2023-02-14T03:00:44;101651.75;;;-3.01;86.18
9059;BME280;4564;42.034;25.834;2023-02-14T03:03:12;101649.66;;;-2.92;85.74
9059;BME280;4564;42.034;25.834;2023-02-14T03:05:57;101639.81;;;-2.90;85.41
9059;BME280;4564;42.034;25.834;2023-02-14T03:08:25;101635.63;;;-2.76;85.73
9059;BME280;4564;42.034;25.834;2023-02-14T03:10:52;101632.59;;;-2.68;85.46
9059;BME280;4564;42.034;25.834;2023-02-14T03:13:30;101644.81;;;-2.45;84.82
9059;BME280;4564;42.034;25.834;2023-02-14T03:16:07;101634.19;;;-2.45;84.15
9059;BME280;4564;42.034;25.834;2023-02-14T03:18:38;101648.91;;;-2.57;84.50
9059;BME280;4564;42.034;25.834;2023-02-14T03:21:27;101642.00;;;-2.61;84.24
9059;BME280;4564;42.034;25.834;2023-02-14T03:23:59;101634.28;;;-2.86;84.33
9059;BME280;4564;42.034;25.834;2023-02-14T03:26:32;101646.44;;;-3.01;84.62
9059;BME280;4564;42.034;25.834;2023-02-14T03:29:00;101642.44;;;-3.09;85.26
9059;BME280;4564;42.034;25.834;2023-02-14T03:31:32;101638.75;;;-3.07;86.42
9059;BME280;4564;42.034;25.834;2023-02-14T03:34:03;101635.81;;;-3.19;87.07
9059;BME280;4564;42.034;25.834;2023-02-14T03:36:35;101631.41;;;-3.20;87.58
9059;BME280;4564;42.034;25.834;2023-02-14T03:39:05;101640.75;;;-2.91;88.01
9059;BME280;4564;42.034;25.834;2023-02-14T03:41:35;101634.19;;;-3.03;87.29
9059;BME280;4564;42.034;25.834;2023-02-14T03:44:04;101640.28;;;-3.21;87.29
9059;BME280;4564;42.034;25.834;2023-02-14T03:46:33;101637.59;;;-3.40;87.72
9059;BME280;4564;42.034;25.834;2023-02-14T03:49:02;101649.63;;;-3.53;88.36
9059;BME280;4564;42.034;25.834;2023-02-14T03:51:30;101647.44;;;-3.44;89.02
9059;BME280;4564;42.034;25.834;2023-02-14T03:54:00;101644.78;;;-3.64;89.13
9059;BME280;4564;42.034;25.834;2023-02-14T03:56:31;101646.56;;;-3.64;90.77
9059;BME280;4564;42.034;25.834;2023-02-14T03:59:02;101632.41;;;-3.43;90.52
9059;BME280;4564;42.034;25.834;2023-02-14T04:01:31;101627.19;;;-3.24;90.05
9059;BME280;4564;42.034;25.834;2023-02-14T04:04:00;101630.97;;;-3.30;90.32
9059;BME280;4564;42.034;25.834;2023-02-14T04:06:27;101627.09;;;-3.43;90.78
9059;BME280;4564;42.034;25.834;2023-02-14T04:08:53;101625.09;;;-3.38;90.79
9059;BME280;4564;42.034;25.834;2023-02-14T04:11:20;101632.28;;;-3.40;91.93
9059;BME280;4564;42.034;25.834;2023-02-14T04:13:48;101639.25;;;-3.38;91.91
9059;BME280;4564;42.034;25.834;2023-02-14T04:16:15;101635.47;;;-3.32;91.97
9059;BME280;4564;42.034;25.834;2023-02-14T04:18:41;101625.81;;;-3.34;91.78
9059;BME280;4564;42.034;25.834;2023-02-14T04:21:25;101626.06;;;-3.19;91.80
9059;BME280;4564;42.034;25.834;2023-02-14T04:23:52;101622.31;;;-3.15;91.50
9059;BME280;4564;42.034;25.834;2023-02-14T04:26:18;101621.25;;;-3.11;91.05
9059;BME280;4564;42.034;25.834;2023-02-14T04:28:45;101623.13;;;-3.33;91.51
9059;BME280;4564;42.034;25.834;2023-02-14T04:31:13;101630.75;;;-3.46;92.26
9059;BME280;4564;42.034;25.834;2023-02-14T04:33:39;101617.00;;;-3.55;93.16
9059;BME280;4564;42.034;25.834;2023-02-14T04:36:06;101623.97;;;-3.32;93.84
9059;BME280;4564;42.034;25.834;2023-02-14T04:38:33;101610.97;;;-3.18;92.62
9059;BME280;4564;42.034;25.834;2023-02-14T04:41:00;101608.25;;;-3.17;91.33
9059;BME280;4564;42.034;25.834;2023-02-14T04:43:26;101608.66;;;-3.26;90.61
9059;BME280;4564;42.034;25.834;2023-02-14T04:45:53;101599.34;;;-3.16;90.10
9059;BME280;4564;42.034;25.834;2023-02-14T04:48:21;101590.97;;;-3.07;90.12
9059;BME280;4564;42.034;25.834;2023-02-14T04:50:49;101575.09;;;-3.27;89.01
9059;BME280;4564;42.034;25.834;2023-02-14T04:53:16;101568.63;;;-3.40;88.60
9059;BME280;4564;42.034;25.834;2023-02-14T04:55:44;101566.53;;;-3.33;89.35
9059;BME280;4564;42.034;25.834;2023-02-14T04:58:10;101560.69;;;-3.21;89.00
9059;BME280;4564;42.034;25.834;2023-02-14T05:00:37;101564.69;;;-3.13;88.51
9059;BME280;4564;42.034;25.834;2023-02-14T05:03:03;101571.25;;;-3.20;88.39
9059;BME280;4564;42.034;25.834;2023-02-14T05:05:31;101568.91;;;-3.27;89.79
9059;BME280;4564;42.034;25.834;2023-02-14T05:07:58;101572.69;;;-3.33;90.61
9059;BME280;4564;42.034;25.834;2023-02-14T05:10:27;101571.19;;;-3.39;92.00
9059;BME280;4564;42.034;25.834;2023-02-14T05:12:54;101562.16;;;-3.34;92.24
9059;BME280;4564;42.034;25.834;2023-02-14T05:15:20;101572.44;;;-3.27;91.59
9059;BME280;4564;42.034;25.834;2023-02-14T05:17:47;101561.22;;;-3.13;91.02
9059;BME280;4564;42.034;25.834;2023-02-14T05:20:13;101566.47;;;-3.32;89.16
9059;BME280;4564;42.034;25.834;2023-02-14T05:22:41;101567.00;;;-3.44;89.26
9059;BME280;4564;42.034;25.834;2023-02-14T05:25:08;101559.97;;;-3.45;88.56
9059;BME280;4564;42.034;25.834;2023-02-14T05:27:34;101559.44;;;-3.33;88.78
9059;BME280;4564;42.034;25.834;2023-02-14T05:30:01;101562.53;;;-3.23;88.32
9059;BME280;4564;42.034;25.834;2023-02-14T05:32:27;101556.88;;;-3.16;87.95
9059;BME280;4564;42.034;25.834;2023-02-14T05:34:54;101561.13;;;-3.12;87.48
9059;BME280;4564;42.034;25.834;2023-02-14T05:37:20;101562.56;;;-3.05;87.05
9059;BME280;4564;42.034;25.834;2023-02-14T05:39:48;101571.63;;;-2.90;87.88
9059;BME280;4564;42.034;25.834;2023-02-14T05:42:15;101575.31;;;-2.92;88.27
9059;BME280;4564;42.034;25.834;2023-02-14T05:44:41;101573.63;;;-3.14;89.31
9059;BME280;4564;42.034;25.834;2023-02-14T05:47:08;101568.09;;;-3.09;90.21
9059;BME280;4564;42.034;25.834;2023-02-14T05:49:35;101572.53;;;-3.10;90.46
9059;BME280;4564;42.034;25.834;2023-02-14T05:52:01;101576.34;;;-2.97;90.73
9059;BME280;4564;42.034;25.834;2023-02-14T05:54:28;101569.50;;;-2.82;90.63
9059;BME280;4564;42.034;25.834;2023-02-14T05:56:56;101572.75;;;-2.75;88.67
9059;BME280;4564;42.034;25.834;2023-02-14T05:59:22;101558.72;;;-2.79;87.10
9059;BME280;4564;42.034;25.834;2023-02-14T06:01:49;101563.53;;;-2.49;87.39
9059;BME280;4564;42.034;25.834;2023-02-14T06:04:15;101572.72;;;-2.38;86.58
9059;BME280;4564;42.034;25.834;2023-02-14T06:06:42;101566.66;;;-2.41;87.59
9059;BME280;4564;42.034;25.834;2023-02-14T06:09:08;101558.63;;;-2.40;88.34
9059;BME280;4564;42.034;25.834;2023-02-14T06:11:35;101561.47;;;-2.26;88.54
9059;BME280;4564;42.034;25.834;2023-02-14T06:14:03;101563.75;;;-1.65;89.53
9059;BME280;4564;42.034;25.834;2023-02-14T06:16:29;101552.69;;;-0.59;89.72
9059;BME280;4564;42.034;25.834;2023-02-14T06:18:56;101559.88;;;0.62;86.48
9059;BME280;4564;42.034;25.834;2023-02-14T06:21:22;101556.91;;;1.92;80.03
9059;BME280;4564;42.034;25.834;2023-02-14T06:23:49;101545.44;;;2.69;73.46
9059;BME280;4564;42.034;25.834;2023-02-14T06:26:16;101544.38;;;3.46;71.09
9059;BME280;4564;42.034;25.834;2023-02-14T06:28:43;101536.78;;;3.76;63.23
9059;BME280;4564;42.034;25.834;2023-02-14T06:31:15;101536.06;;;3.98;62.17
9059;BME280;4564;42.034;25.834;2023-02-14T06:33:42;101536.66;;;4.02;60.73
9059;BME280;4564;42.034;25.834;2023-02-14T06:36:09;101540.81;;;4.30;59.84
9059;BME280;4564;42.034;25.834;2023-02-14T06:38:35;101534.28;;;4.45;58.99
9059;BME280;4564;42.034;25.834;2023-02-14T06:41:02;101541.34;;;4.92;58.17
9059;BME280;4564;42.034;25.834;2023-02-14T06:43:29;101545.03;;;5.46;56.13
9059;BME280;4564;42.034;25.834;2023-02-14T06:45:55;101544.06;;;5.36;56.21
9059;BME280;4564;42.034;25.834;2023-02-14T06:48:23;101540.13;;;5.29;56.10
9059;BME280;4564;42.034;25.834;2023-02-14T06:50:50;101547.41;;;5.94;55.57
9059;BME280;4564;42.034;25.834;2023-02-14T06:53:17;101546.19;;;5.98;57.01
9059;BME280;4564;42.034;25.834;2023-02-14T06:55:44;101556.72;;;6.33;53.42
9059;BME280;4564;42.034;25.834;2023-02-14T06:58:10;101549.34;;;7.18;53.65
9059;BME280;4564;42.034;25.834;2023-02-14T07:00:37;101544.41;;;7.02;52.11
9059;BME280;4564;42.034;25.834;2023-02-14T07:03:04;101543.91;;;7.39;51.40
9059;BME280;4564;42.034;25.834;2023-02-14T07:05:32;101538.72;;;6.96;51.92
9059;BME280;4564;42.034;25.834;2023-02-14T07:07:59;101547.50;;;7.49;52.61
9059;BME280;4564;42.034;25.834;2023-02-14T07:10:25;101545.66;;;8.28;51.53
9059;BME280;4564;42.034;25.834;2023-02-14T07:12:52;101549.06;;;8.88;47.62
9059;BME280;4564;42.034;25.834;2023-02-14T07:15:19;101542.16;;;9.22;48.52
9059;BME280;4564;42.034;25.834;2023-02-14T07:17:45;101549.91;;;9.44;47.77
9059;BME280;4564;42.034;25.834;2023-02-14T07:20:13;101543.25;;;9.84;45.74
9059;BME280;4564;42.034;25.834;2023-02-14T07:22:41;101539.47;;;9.94;45.70
9059;BME280;4564;42.034;25.834;2023-02-14T07:25:07;101540.63;;;9.74;46.10
9059;BME280;4564;42.034;25.834;2023-02-14T07:27:34;101544.97;;;9.85;46.59
9059;BME280;4564;42.034;25.834;2023-02-14T07:30:01;101530.53;;;8.93;46.79
9059;BME280;4564;42.034;25.834;2023-02-14T07:32:28;101535.25;;;8.91;48.46
9059;BME280;4564;42.034;25.834;2023-02-14T07:34:55;101536.38;;;9.35;48.07
9059;BME280;4564;42.034;25.834;2023-02-14T07:37:22;101539.56;;;9.85;47.12
9059;BME280;4564;42.034;25.834;2023-02-14T07:39:49;101535.75;;;10.40;46.00
9059;BME280;4564;42.034;25.834;2023-02-14T07:42:16;101525.63;;;10.25;47.81
9059;BME280;4564;42.034;25.834;2023-02-14T07:44:43;101520.94;;;10.52;44.49
9059;BME280;4564;42.034;25.834;2023-02-14T07:47:10;101518.47;;;10.24;46.42
9059;BME280;4564;42.034;25.834;2023-02-14T07:49:37;101518.53;;;10.14;46.74
9059;BME280;4564;42.034;25.834;2023-02-14T07:52:03;101500.75;;;10.73;46.66
9059;BME280;4564;42.034;25.834;2023-02-14T07:54:30;101503.19;;;10.84;45.67
9059;BME280;4564;42.034;25.834;2023-02-14T07:56:58;101504.47;;;10.98;46.40
9059;BME280;4564;42.034;25.834;2023-02-14T07:59:25;101513.56;;;11.14;46.02
9059;BME280;4564;42.034;25.834;2023-02-14T08:01:51;101525.66;;;10.50;46.42
9059;BME280;4564;42.034;25.834;2023-02-14T08:04:18;101520.84;;;10.62;46.27
9059;BME280;4564;42.034;25.834;2023-02-14T08:06:45;101523.00;;;10.59;47.02
9059;BME280;4564;42.034;25.834;2023-02-14T08:09:12;101515.41;;;9.91;47.72
9059;BME280;4564;42.034;25.834;2023-02-14T08:11:48;101518.53;;;9.69;49.68
9059;BME280;4564;42.034;25.834;2023-02-14T08:14:34;101529.78;;;9.10;50.15
9059;BME280;4564;42.034;25.834;2023-02-14T08:17:00;101525.47;;;8.51;54.40
9059;BME280;4564;42.034;25.834;2023-02-14T08:19:27;101525.44;;;8.70;53.75
9059;BME280;4564;42.034;25.834;2023-02-14T08:21:54;101528.03;;;8.43;53.85
9059;BME280;4564;42.034;25.834;2023-02-14T08:24:20;101531.00;;;8.59;54.39
9059;BME280;4564;42.034;25.834;2023-02-14T08:26:47;101529.34;;;8.58;56.09
9059;BME280;4564;42.034;25.834;2023-02-14T08:29:14;101535.84;;;8.75;55.77
9059;BME280;4564;42.034;25.834;2023-02-14T08:31:42;101532.84;;;8.78;55.06
9059;BME280;4564;42.034;25.834;2023-02-14T08:34:09;101530.28;;;8.76;55.00
9059;BME280;4564;42.034;25.834;2023-02-14T08:36:36;101526.84;;;8.94;55.68
9059;BME280;4564;42.034;25.834;2023-02-14T08:39:03;101525.66;;;9.06;56.17
9059;BME280;4564;42.034;25.834;2023-02-14T08:41:30;101522.13;;;8.86;55.23
9059;BME280;4564;42.034;25.834;2023-02-14T08:43:57;101525.16;;;8.73;55.10
9059;BME280;4564;42.034;25.834;2023-02-14T08:46:23;101514.91;;;8.77;56.57
9059;BME280;4564;42.034;25.834;2023-02-14T08:48:51;101506.19;;;8.83;55.32
9059;BME280;4564;42.034;25.834;2023-02-14T08:51:19;101506.19;;;8.83;55.23
9059;BME280;4564;42.034;25.834;2023-02-14T08:53:48;101499.97;;;8.73;55.68
9059;BME280;4564;42.034;25.834;2023-02-14T08:56:15;101503.34;;;8.84;54.28
9059;BME280;4564;42.034;25.834;2023-02-14T08:58:42;101483.97;;;8.89;57.89
9059;BME280;4564;42.034;25.834;2023-02-14T09:01:08;101482.63;;;9.03;56.12
9059;BME280;4564;42.034;25.834;2023-02-14T09:03:35;101480.91;;;9.02;54.65
9059;BME280;4564;42.034;25.834;2023-02-14T09:06:03;101486.94;;;8.96;55.96
9059;BME280;4564;42.034;25.834;2023-02-14T09:08:30;101473.63;;;9.02;55.98
9059;BME280;4564;42.034;25.834;2023-02-14T09:10:59;101487.75;;;9.06;54.16
9059;BME280;4564;42.034;25.834;2023-02-14T09:13:25;101478.91;;;9.04;54.37
9059;BME280;4564;42.034;25.834;2023-02-14T09:15:53;101489.38;;;9.26;54.06
9059;BME280;4564;42.034;25.834;2023-02-14T09:18:19;101478.22;;;9.39;55.71
9059;BME280;4564;42.034;25.834;2023-02-14T09:20:46;101481.34;;;9.34;54.67
9059;BME280;4564;42.034;25.834;2023-02-14T09:23:14;101478.03;;;9.40;54.25
9059;BME280;4564;42.034;25.834;2023-02-14T09:25:40;101481.84;;;9.47;54.23
9059;BME280;4564;42.034;25.834;2023-02-14T09:28:08;101483.84;;;9.45;54.04
9059;BME280;4564;42.034;25.834;2023-02-14T09:30:35;101486.53;;;9.27;51.92
9059;BME280;4564;42.034;25.834;2023-02-14T09:33:01;101483.44;;;9.40;53.70
9059;BME280;4564;42.034;25.834;2023-02-14T09:35:29;101488.41;;;9.45;52.41
9059;BME280;4564;42.034;25.834;2023-02-14T09:38:15;101494.09;;;9.51;53.21
9059;BME280;4564;42.034;25.834;2023-02-14T09:40:43;101488.19;;;9.38;51.58
9059;BME280;4564;42.034;25.834;2023-02-14T09:43:11;101475.09;;;9.34;51.84
9059;BME280;4564;42.034;25.834;2023-02-14T09:45:42;101471.88;;;9.48;53.74
9059;BME280;4564;42.034;25.834;2023-02-14T09:48:13;101467.19;;;9.67;54.02
9059;BME280;4564;42.034;25.834;2023-02-14T09:50:45;101462.28;;;9.53;52.38
9059;BME280;4564;42.034;25.834;2023-02-14T09:53:17;101460.13;;;9.57;52.91
9059;BME280;4564;42.034;25.834;2023-02-14T09:55:46;101452.59;;;9.51;50.82
9059;BME280;4564;42.034;25.834;2023-02-14T09:58:18;101451.44;;;9.53;53.47
9059;BME280;4564;42.034;25.834;2023-02-14T10:00:47;101452.16;;;9.55;53.19
9059;BME280;4564;42.034;25.834;2023-02-14T10:03:26;101452.09;;;9.65;51.55
9059;BME280;4564;42.034;25.834;2023-02-14T10:05:55;101443.78;;;9.66;50.11
9059;BME280;4564;42.034;25.834;2023-02-14T10:08:30;101433.09;;;9.83;50.70
9059;BME280;4564;42.034;25.834;2023-02-14T10:11:03;101427.53;;;9.84;51.85
9059;BME280;4564;42.034;25.834;2023-02-14T10:13:32;101419.81;;;9.72;49.92
9059;BME280;4564;42.034;25.834;2023-02-14T10:16:02;101418.31;;;9.77;51.31
9059;BME280;4564;42.034;25.834;2023-02-14T10:18:34;101416.47;;;9.78;49.74
9059;BME280;4564;42.034;25.834;2023-02-14T10:21:04;101411.97;;;9.86;50.87
9059;BME280;4564;42.034;25.834;2023-02-14T10:23:33;101402.91;;;9.78;50.59
9059;BME280;4564;42.034;25.834;2023-02-14T10:26:03;101391.16;;;9.69;51.13
9059;BME280;4564;42.034;25.834;2023-02-14T10:28:30;101394.78;;;9.78;50.29
9059;BME280;4564;42.034;25.834;2023-02-14T10:31:01;101383.31;;;9.84;49.71
9059;BME280;4564;42.034;25.834;2023-02-14T10:33:30;101376.16;;;10.00;49.17
9059;BME280;4564;42.034;25.834;2023-02-14T10:36:02;101376.72;;;10.04;49.30
9059;BME280;4564;42.034;25.834;2023-02-14T10:38:32;101375.88;;;10.03;49.28
9059;BME280;4564;42.034;25.834;2023-02-14T10:41:14;101374.69;;;10.06;49.06
9059;BME280;4564;42.034;25.834;2023-02-14T10:43:45;101379.44;;;10.04;48.55
9059;BME280;4564;42.034;25.834;2023-02-14T10:46:19;101374.69;;;10.06;48.92
9059;BME280;4564;42.034;25.834;2023-02-14T10:48:51;101372.78;;;9.98;47.01
9059;BME280;4564;42.034;25.834;2023-02-14T10:51:22;101362.31;;;10.03;47.40
9059;BME280;4564;42.034;25.834;2023-02-14T10:53:57;101370.50;;;9.94;46.63
9059;BME280;4564;42.034;25.834;2023-02-14T10:56:30;101356.59;;;9.89;46.84
9059;BME280;4564;42.034;25.834;2023-02-14T10:58:58;101353.25;;;9.95;46.84
9059;BME280;4564;42.034;25.834;2023-02-14T11:01:28;101355.34;;;10.01;46.50
9059;BME280;4564;42.034;25.834;2023-02-14T11:03:56;101347.56;;;10.06;46.66
9059;BME280;4564;42.034;25.834;2023-02-14T11:06:27;101345.56;;;10.08;45.76
9059;BME280;4564;42.034;25.834;2023-02-14T11:08:54;101356.66;;;9.97;45.68
9059;BME280;4564;42.034;25.834;2023-02-14T11:11:23;101343.78;;;9.99;46.34
9059;BME280;4564;42.034;25.834;2023-02-14T11:13:51;101333.50;;;9.85;46.66
9059;BME280;4564;42.034;25.834;2023-02-14T11:16:27;101329.84;;;9.94;47.19
9059;BME280;4564;42.034;25.834;2023-02-14T11:19:06;101330.44;;;10.05;46.12
9059;BME280;4564;42.034;25.834;2023-02-14T11:21:35;101331.16;;;10.07;46.67
9059;BME280;4564;42.034;25.834;2023-02-14T11:24:02;101326.03;;;10.04;45.65
9059;BME280;4564;42.034;25.834;2023-02-14T11:26:43;101320.16;;;10.09;45.45
9059;BME280;4564;42.034;25.834;2023-02-14T11:29:13;101314.03;;;10.07;46.13
9059;BME280;4564;42.034;25.834;2023-02-14T11:31:40;101314.06;;;10.15;46.24
9059;BME280;4564;42.034;25.834;2023-02-14T11:34:14;101301.25;;;9.99;45.47
9059;BME280;4564;42.034;25.834;2023-02-14T11:36:46;101301.19;;;9.91;45.82
9059;BME280;4564;42.034;25.834;2023-02-14T11:39:17;101298.72;;;9.98;45.97
9059;BME280;4564;42.034;25.834;2023-02-14T11:41:47;101294.84;;;10.26;43.82
9059;BME280;4564;42.034;25.834;2023-02-14T11:44:18;101290.50;;;10.16;43.41
9059;BME280;4564;42.034;25.834;2023-02-14T11:46:47;101295.81;;;10.17;43.99
9059;BME280;4564;42.034;25.834;2023-02-14T11:49:25;101294.16;;;10.24;45.29
9059;BME280;4564;42.034;25.834;2023-02-14T11:51:53;101290.03;;;9.94;42.26
9059;BME280;4564;42.034;25.834;2023-02-14T11:54:24;101287.91;;;10.06;43.24
9059;BME280;4564;42.034;25.834;2023-02-14T11:56:53;101288.75;;;10.24;44.30
9059;BME280;4564;42.034;25.834;2023-02-14T11:59:25;101283.34;;;10.32;42.62
9059;BME280;4564;42.034;25.834;2023-02-14T12:01:53;101281.16;;;10.10;43.46
9059;BME280;4564;42.034;25.834;2023-02-14T12:04:23;101279.84;;;10.14;43.18
9059;BME280;4564;42.034;25.834;2023-02-14T12:07:12;101263.25;;;10.17;42.76
9059;BME280;4564;42.034;25.834;2023-02-14T12:09:38;101261.97;;;10.29;43.38
9059;BME280;4564;42.034;25.834;2023-02-14T12:12:14;101257.19;;;10.23;43.15
9059;BME280;4564;42.034;25.834;2023-02-14T12:14:42;101252.84;;;10.30;43.51
9059;BME280;4564;42.034;25.834;2023-02-14T12:17:11;101246.09;;;10.42;44.02
9059;BME280;4564;42.034;25.834;2023-02-14T12:19:43;101250.16;;;10.38;43.24
9059;BME280;4564;42.034;25.834;2023-02-14T12:22:12;101239.00;;;10.49;42.74
9059;BME280;4564;42.034;25.834;2023-02-14T12:24:42;101241.88;;;10.48;41.73
9059;BME280;4564;42.034;25.834;2023-02-14T12:27:17;101233.84;;;10.30;43.34
9059;BME280;4564;42.034;25.834;2023-02-14T12:29:47;101233.03;;;10.12;43.99
9059;BME280;4564;42.034;25.834;2023-02-14T12:32:19;101236.66;;;10.21;42.68
9059;BME280;4564;42.034;25.834;2023-02-14T12:34:46;101227.72;;;10.28;42.25
9059;BME280;4564;42.034;25.834;2023-02-14T12:37:16;101226.91;;;10.36;41.67
9059;BME280;4564;42.034;25.834;2023-02-14T12:39:52;101222.94;;;10.22;42.25
9059;BME280;4564;42.034;25.834;2023-02-14T12:42:27;101220.94;;;10.24;41.90
9059;BME280;4564;42.034;25.834;2023-02-14T12:45:01;101222.94;;;10.22;41.24
9059;BME280;4564;42.034;25.834;2023-02-14T12:47:31;101222.63;;;10.25;41.99
9059;BME280;4564;42.034;25.834;2023-02-14T12:50:05;101224.00;;;10.29;42.79
9059;BME280;4564;42.034;25.834;2023-02-14T12:52:51;101220.44;;;10.29;43.27
9059;BME280;4564;42.034;25.834;2023-02-14T12:55:28;101227.00;;;10.18;43.61
9059;BME280;4564;42.034;25.834;2023-02-14T12:58:00;101230.66;;;10.09;43.15
9059;BME280;4564;42.034;25.834;2023-02-14T13:00:34;101233.16;;;10.02;43.26
9059;BME280;4564;42.034;25.834;2023-02-14T13:05:55;101229.34;;;9.87;42.16
9059;BME280;4564;42.034;25.834;2023-02-14T13:08:30;101231.78;;;9.98;42.38
9059;BME280;4564;42.034;25.834;2023-02-14T13:11:05;101223.75;;;10.15;42.48
9059;BME280;4564;42.034;25.834;2023-02-14T13:13:40;101214.97;;;10.21;42.98
9059;BME280;4564;42.034;25.834;2023-02-14T13:16:13;101212.03;;;10.14;44.13
9059;BME280;4564;42.034;25.834;2023-02-14T13:18:44;101215.06;;;10.11;43.08
9059;BME280;4564;42.034;25.834;2023-02-14T13:21:14;101219.56;;;10.20;42.86